This is the latest recevied weather packets stored in our database for station/object VE7PRT-1. If no packets are shown the sender has not sent any weather packets the latest 10 day(s).
| Time | Temp. | Humidity | Pressure | Rain* | Wind** | Luminosity | Snow |
|---|---|---|---|---|---|---|---|
| 1777687104 | 14.44° C | 90% | 1016.5 hPa | 0 mm | - | - | - |
| 1777686263 | 14.44° C | 89% | 1016.6 hPa | 0 mm | - | - | - |
| 1777685387 | 15° C | 87% | 1016.7 hPa | 0 mm | - | - | - |
| 1777684504 | 16.11° C | 84% | 1016.8 hPa | 0 mm | - | - | - |
| 1777683787 | 16.67° C | 82% | 1016.8 hPa | 0 mm | - | - | - |
| 1777683053 | 16.67° C | 82% | 1016.9 hPa | 0 mm | - | - | - |
| 1777682167 | 17.22° C | 82% | 1016.9 hPa | 0 mm | - | - | - |
| 1777681324 | 16.67° C | 84% | 1017 hPa | 0 mm | - | - | - |
| 1777680539 | 16.67° C | 83% | 1017.1 hPa | 0 mm | - | - | - |
| 1777679694 | 16.67° C | 84% | 1017.3 hPa | 0 mm | - | - | - |
| 1777678844 | 16.11° C | 85% | 1017.3 hPa | 0 mm | - | - | - |
| 1777678101 | 16.11° C | 85% | 1017.4 hPa | 0 mm | - | - | - |
| 1777677374 | 16.11° C | 84% | 1017.5 hPa | 0 mm | - | - | - |
| 1777676573 | 16.11° C | 84% | 1017.5 hPa | 0 mm | - | - | - |
| 1777675810 | 16.67° C | 83% | 1017.7 hPa | 0 mm | - | - | - |
| 1777674915 | 16.67° C | 86% | 1017.8 hPa | 0 mm | - | - | - |
| 1777674170 | 16.11° C | 86% | 1017.9 hPa | 0 mm | - | - | - |
| 1777673433 | 16.67° C | 86% | 1017.8 hPa | 0 mm | - | - | - |
| 1777672687 | 16.11° C | 89% | 1017.8 hPa | 0 mm | - | - | - |
| 1777671945 | 15.56° C | 92% | 1017.8 hPa | 0 mm | - | - | - |
| 1777671149 | 15° C | 92% | 1018.2 hPa | 0 mm | - | - | - |
| 1777670424 | 14.44° C | 92% | 1018.2 hPa | 0 mm | - | - | - |
| 1777669599 | 15° C | 92% | 1018.3 hPa | 0 mm | - | - | - |
| 1777668814 | 14.44° C | 93% | 1018.2 hPa | 0 mm | - | - | - |
| 1777668090 | 13.89° C | 94% | 1018.2 hPa | 0 mm | - | - | - |
* Rain latest hour (hover to see other rain measurements)
** Current wind speed in m/s (hover to see current wind gust speed)